This is the latest recevied weather packets stored in our database for station/object YC0ACE-13. If no packets are shown the sender has not sent any weather packets the latest 10 day(s).
| Time | Temp. | Humidity | Pressure | Rain* | Wind** | Luminosity | Snow |
|---|---|---|---|---|---|---|---|
| 1777606825 | 31.67° C | 63% | 1016.3 hPa | 0 mm | - | 697 W/m² | - |
| 1777606524 | 31.11° C | 64% | 1016.6 hPa | 0 mm | - | 693 W/m² | - |
| 1777606224 | 31.67° C | 64% | 1016.3 hPa | 0 mm | - | 528 W/m² | - |
| 1777605925 | 31.67° C | 64% | 1016.6 hPa | 0 mm | - | 750 W/m² | - |
| 1777605625 | 31.67° C | 62% | 1016.6 hPa | 0 mm | - | 571 W/m² | - |
| 1777605324 | 32.22° C | 61% | 1016.9 hPa | 0 mm | - | 731 W/m² | - |
| 1777605024 | 31.67° C | 62% | 1016.6 hPa | 0 mm | - | 740 W/m² | - |
| 1777604725 | 31.67° C | 62% | 1016.9 hPa | 0 mm | - | 716 W/m² | - |
| 1777604425 | 32.22° C | 61% | 1016.9 hPa | 0 mm | - | 736 W/m² | - |
| 1777603848 | 32.22° C | 60% | 1016.9 hPa | 0 mm | - | 876 W/m² | - |
| 1777603525 | 32.78° C | 59% | 1017.3 hPa | 0 mm | - | 895 W/m² | - |
| 1777603225 | 32.78° C | 60% | 1016.9 hPa | 0 mm | - | 856 W/m² | - |
| 1777602925 | 32.22° C | 62% | 1016.9 hPa | 0 mm | - | 827 W/m² | - |
| 1777602625 | 31.67° C | 63% | 1016.9 hPa | 0 mm | - | 718 W/m² | - |
| 1777602325 | 31.11° C | 66% | 1016.9 hPa | 0 mm | - | 695 W/m² | - |
| 1777602025 | 30.56° C | 68% | 1016.9 hPa | 0 mm | - | 670 W/m² | - |
| 1777601725 | 29.44° C | 71% | 1017.3 hPa | 0 mm | - | 660 W/m² | - |
| 1777601428 | 28.89° C | 73% | 1016.9 hPa | 0 mm | - | 328 W/m² | - |
| 1777601125 | 29.44° C | 73% | 1016.9 hPa | 0 mm | - | 206 W/m² | - |
| 1777600825 | 29.44° C | 73% | 1016.9 hPa | 0 mm | - | 216 W/m² | - |
| 1777600525 | 29.44° C | 71% | 1016.9 hPa | 0 mm | - | 304 W/m² | - |
| 1777600225 | 28.89° C | 74% | 1016.9 hPa | 0 mm | - | 499 W/m² | - |
| 1777599925 | 28.89° C | 75% | 1017.3 hPa | 0 mm | - | 372 W/m² | - |
| 1777599625 | 28.33° C | 77% | 1017.3 hPa | 0 mm | - | 361 W/m² | - |
| 1777599325 | 28.33° C | 77% | 1016.9 hPa | 0 mm | - | 279 W/m² | - |
* Rain latest hour (hover to see other rain measurements)
** Current wind speed in m/s (hover to see current wind gust speed)